Time;durP1;ratioP1;P1;durP2;ratioP2;P2;SDS_P1;SDS_P2;PMS_P1;PMS_P2;Temp;Humidity;BMP_temperature;BMP_pressure;BME280_temperature;BME280_humidity;BME280_pressure;Samples;Min_cycle;Max_cycle;Signal;HPM_P1;HPM_P2
2023/04/16 00:01:02;;;;;;;10.63;7.03;;;;;;;9.17;100.00;99114.84;5075213;28;20250;-78
2023/04/16 00:03:32;;;;;;;7.53;5.97;;;;;;;9.20;100.00;99113.81;5071492;28;20290;-78
2023/04/16 00:06:01;;;;;;;8.90;6.00;;;;;;;9.21;100.00;99113.69;5070257;28;20192;-79
2023/04/16 00:08:29;;;;;;;8.87;6.10;;;;;;;9.23;100.00;99116.25;5065527;28;20234;-79
2023/04/16 00:10:57;;;;;;;8.00;5.90;;;;;;;9.19;100.00;99118.22;5073314;28;20220;-79
2023/04/16 00:13:26;;;;;;;9.47;6.50;;;;;;;9.23;100.00;99114.47;5068431;28;20191;-79
2023/04/16 00:15:55;;;;;;;9.23;6.17;;;;;;;9.20;100.00;99117.28;5072560;28;20188;-78
2023/04/16 00:18:23;;;;;;;8.07;5.93;;;;;;;9.31;100.00;99111.38;5069157;28;20193;-78
2023/04/16 00:20:53;;;;;;;7.93;5.93;;;;;;;9.33;100.00;99112.97;5075279;28;20200;-78
2023/04/16 00:23:23;;;;;;;8.17;6.50;;;;;;;9.25;100.00;99107.28;5073923;28;20200;-78
2023/04/16 00:25:52;;;;;;;9.00;6.80;;;;;;;9.32;100.00;99111.28;5071033;28;20192;-78
2023/04/16 00:28:20;;;;;;;8.97;6.33;;;;;;;9.29;100.00;99113.25;5069392;28;20193;-78
2023/04/16 00:30:48;;;;;;;8.47;6.03;;;;;;;9.38;100.00;99116.19;5070921;28;20197;-79
2023/04/16 00:33:17;;;;;;;8.60;6.67;;;;;;;9.38;100.00;99118.84;5064883;28;20200;-79
2023/04/16 00:35:46;;;;;;;7.77;5.67;;;;;;;9.41;100.00;99115.16;5074789;28;20196;-78
2023/04/16 00:38:15;;;;;;;7.60;5.70;;;;;;;9.35;100.00;99115.50;5070854;28;20239;-79
2023/04/16 00:40:44;;;;;;;8.10;5.57;;;;;;;9.42;100.00;99111.56;5074597;28;20258;-79
2023/04/16 00:43:12;;;;;;;8.37;6.43;;;;;;;9.39;100.00;99109.13;5065875;28;20199;-78
2023/04/16 00:45:41;;;;;;;9.40;6.10;;;;;;;9.37;100.00;99111.84;5071660;28;20196;-77
2023/04/16 00:48:10;;;;;;;8.57;6.03;;;;;;;9.39;100.00;99122.34;5074607;28;20197;-77
2023/04/16 00:50:38;;;;;;;9.00;6.00;;;;;;;9.39;100.00;99120.53;5068742;28;20257;-78
2023/04/16 00:53:06;;;;;;;9.53;6.10;;;;;;;9.23;100.00;99114.47;5071307;28;20263;-78
2023/04/16 00:55:36;;;;;;;6.70;5.50;;;;;;;9.23;100.00;99121.53;5070296;28;20687;-77
2023/04/16 00:58:04;;;;;;;9.97;6.23;;;;;;;9.29;100.00;99118.53;5072848;28;20196;-78
2023/04/16 01:00:33;;;;;;;8.00;6.13;;;;;;;9.32;100.00;99118.34;5074407;28;20199;-78
2023/04/16 01:03:01;;;;;;;9.03;6.30;;;;;;;9.31;100.00;99122.78;5074214;28;20189;-77
2023/04/16 01:05:30;;;;;;;8.07;6.27;;;;;;;9.48;100.00;99120.94;5066795;28;20200;-78
2023/04/16 01:07:59;;;;;;;8.37;5.87;;;;;;;9.42;100.00;99120.34;5067130;28;20200;-78
2023/04/16 01:10:28;;;;;;;10.43;6.67;;;;;;;9.46;100.00;99121.88;5065006;28;20254;-77
2023/04/16 01:12:58;;;;;;;9.60;6.60;;;;;;;9.43;100.00;99121.19;5071926;28;20245;-77
2023/04/16 01:15:26;;;;;;;8.13;5.90;;;;;;;9.27;100.00;99118.63;5071156;28;20193;-77
2023/04/16 01:17:54;;;;;;;8.80;6.50;;;;;;;9.32;100.00;99128.91;5064565;28;20200;-78
2023/04/16 01:20:22;;;;;;;8.30;6.20;;;;;;;9.39;100.00;99127.63;5070616;28;20211;-77
2023/04/16 01:22:52;;;;;;;10.23;6.90;;;;;;;9.45;100.00;99128.09;5069144;28;20204;-78
2023/04/16 01:25:20;;;;;;;8.93;6.87;;;;;;;9.40;100.00;99137.25;5073560;28;20652;-77
2023/04/16 01:27:49;;;;;;;8.33;6.80;;;;;;;9.36;100.00;99135.72;5073595;28;20200;-77
2023/04/16 01:30:17;;;;;;;8.97;6.57;;;;;;;9.47;100.00;99128.03;5072354;28;20204;-78
2023/04/16 01:32:46;;;;;;;8.63;6.53;;;;;;;9.49;100.00;99133.22;5068484;28;20216;-78
2023/04/16 01:35:16;;;;;;;9.60;7.33;;;;;;;9.48;100.00;99129.72;5064640;28;20196;-78
2023/04/16 01:37:45;;;;;;;8.90;6.77;;;;;;;9.47;100.00;99133.31;5068181;28;20200;-78
2023/04/16 01:40:15;;;;;;;9.47;6.70;;;;;;;9.32;100.00;99135.06;5071185;28;20200;-78
2023/04/16 01:42:43;;;;;;;8.60;6.40;;;;;;;9.36;100.00;99135.72;5069746;28;20275;-78
2023/04/16 01:45:12;;;;;;;8.93;6.83;;;;;;;9.34;100.00;99134.97;5067827;28;20222;-78
2023/04/16 01:47:40;;;;;;;10.30;6.50;;;;;;;9.37;100.00;99146.22;5070307;28;20200;-78
2023/04/16 01:50:09;;;;;;;9.47;6.70;;;;;;;9.39;100.00;99141.69;5069429;28;20668;-78
2023/04/16 01:52:38;;;;;;;9.50;6.70;;;;;;;9.38;100.00;99147.06;5063775;28;20217;-78
2023/04/16 01:55:07;;;;;;;8.40;6.17;;;;;;;9.42;100.00;99146.78;5073358;28;20184;-78
2023/04/16 01:57:36;;;;;;;11.37;5.93;;;;;;;9.42;100.00;99148.56;5067491;28;20204;-78
2023/04/16 02:00:07;;;;;;;8.30;6.57;;;;;;;9.34;100.00;99153.47;5066225;28;20204;-78
2023/04/16 02:02:35;;;;;;;9.87;7.13;;;;;;;9.42;100.00;99153.88;5068998;28;20648;-78
2023/04/16 02:05:04;;;;;;;10.00;6.93;;;;;;;9.30;100.00;99151.97;5072998;28;20347;-78
2023/04/16 02:07:32;;;;;;;9.90;6.80;;;;;;;9.32;100.00;99142.13;5066388;28;20208;-78
2023/04/16 02:10:00;;;;;;;9.27;6.73;;;;;;;9.34;100.00;99156.97;5063037;28;20245;-78
2023/04/16 02:12:28;;;;;;;10.40;6.87;;;;;;;9.35;100.00;99141.94;5062169;28;20223;-78
2023/04/16 02:14:58;;;;;;;8.83;6.77;;;;;;;9.31;100.00;99143.94;5071728;28;20188;-78
2023/04/16 02:17:26;;;;;;;8.17;6.10;;;;;;;9.37;100.00;99140.94;5070079;28;20197;-78
2023/04/16 02:19:54;;;;;;;10.53;6.23;;;;;;;9.20;100.00;99135.78;5073017;28;20279;-78
2023/04/16 02:22:22;;;;;;;7.97;6.33;;;;;;;9.04;100.00;99140.25;5069847;28;20261;-78
2023/04/16 02:24:50;;;;;;;8.23;6.27;;;;;;;9.12;100.00;99140.66;5069784;28;20192;-78
2023/04/16 02:27:18;;;;;;;8.97;6.97;;;;;;;9.11;100.00;99141.59;5069169;28;20204;-78
2023/04/16 02:29:47;;;;;;;7.63;6.13;;;;;;;9.09;100.00;99139.06;5067772;28;20196;-78
2023/04/16 02:32:17;;;;;;;8.60;6.43;;;;;;;9.14;100.00;99142.28;5072620;28;20216;-78
2023/04/16 02:34:45;;;;;;;9.63;6.70;;;;;;;9.04;100.00;99148.19;5069978;28;20208;-78
2023/04/16 02:37:14;;;;;;;11.00;6.63;;;;;;;8.98;100.00;99140.63;5066747;28;20257;-78
2023/04/16 02:39:42;;;;;;;10.43;7.27;;;;;;;9.00;100.00;99136.09;5067250;28;20379;-78
2023/04/16 02:42:10;;;;;;;10.20;7.43;;;;;;;8.98;100.00;99145.91;5065872;28;20204;-78
2023/04/16 02:44:39;;;;;;;8.57;7.03;;;;;;;8.92;100.00;99144.47;5069823;28;20242;-78
2023/04/16 02:47:07;;;;;;;10.67;7.97;;;;;;;8.90;100.00;99146.34;5070583;28;20192;-78
2023/04/16 02:49:37;;;;;;;11.07;7.90;;;;;;;8.96;100.00;99147.78;5073059;28;20196;-78
2023/04/16 02:52:05;;;;;;;9.73;7.27;;;;;;;8.88;100.00;99145.59;5072697;28;20185;-78
2023/04/16 02:54:33;;;;;;;9.33;7.00;;;;;;;8.87;100.00;99144.72;5076598;28;20200;-78
2023/04/16 02:57:02;;;;;;;11.27;8.47;;;;;;;8.84;100.00;99142.25;5074556;28;20643;-78
2023/04/16 02:59:30;;;;;;;11.23;7.67;;;;;;;8.85;100.00;99148.38;5072397;28;20697;-78
2023/04/16 03:01:58;;;;;;;10.67;7.63;;;;;;;8.72;100.00;99144.75;5025322;28;20204;-78
2023/04/16 03:04:27;;;;;;;11.00;8.03;;;;;;;8.79;100.00;99149.59;5076063;28;20223;-78
2023/04/16 03:06:56;;;;;;;12.10;8.17;;;;;;;8.77;100.00;99154.09;5076529;28;20267;-78
2023/04/16 03:09:25;;;;;;;12.57;8.03;;;;;;;8.80;100.00;99153.94;5070816;28;20341;-78
2023/04/16 03:11:53;;;;;;;10.53;7.93;;;;;;;8.81;100.00;99150.38;5070363;28;20246;-78
2023/04/16 03:14:21;;;;;;;12.07;8.70;;;;;;;8.84;100.00;99144.03;5075001;28;20309;-78
2023/04/16 03:16:49;;;;;;;12.90;8.43;;;;;;;8.91;100.00;99152.47;5070947;28;20253;-78
2023/04/16 03:19:17;;;;;;;11.30;8.17;;;;;;;8.85;100.00;99143.97;5075858;28;20196;-78
2023/04/16 03:21:46;;;;;;;12.90;8.70;;;;;;;8.86;100.00;99148.28;5069395;28;20218;-78
2023/04/16 03:24:16;;;;;;;11.33;8.57;;;;;;;8.88;100.00;99149.09;5076058;28;20197;-78
2023/04/16 03:26:44;;;;;;;11.17;8.67;;;;;;;8.93;100.00;99158.53;5067028;28;20213;-78
2023/04/16 03:29:12;;;;;;;12.37;9.20;;;;;;;8.94;100.00;99163.72;5070975;28;20196;-78
2023/04/16 03:31:40;;;;;;;11.47;8.77;;;;;;;8.92;100.00;99164.75;5075916;28;20199;-78
2023/04/16 03:34:08;;;;;;;13.00;9.40;;;;;;;8.97;100.00;99171.44;5066735;28;20559;-78
2023/04/16 03:36:36;;;;;;;16.47;9.43;;;;;;;8.97;100.00;99166.16;5075852;28;20196;-78
2023/04/16 03:39:05;;;;;;;12.97;9.03;;;;;;;9.01;100.00;99166.88;5072833;28;20196;-78
2023/04/16 03:41:35;;;;;;;13.97;10.03;;;;;;;9.03;100.00;99168.47;5066875;28;20710;-78
2023/04/16 03:44:03;;;;;;;15.50;10.17;;;;;;;9.04;100.00;99170.16;5068411;28;20246;-78
2023/04/16 03:46:32;;;;;;;12.87;9.83;;;;;;;8.95;100.00;99170.69;5071813;28;20201;-78
2023/04/16 03:49:00;;;;;;;12.70;9.60;;;;;;;8.98;100.00;99170.53;5070006;28;20199;-78
2023/04/16 03:51:28;;;;;;;13.27;9.90;;;;;;;8.98;100.00;99154.69;5075515;28;20207;-78
2023/04/16 03:53:56;;;;;;;15.53;10.27;;;;;;;8.91;100.00;99163.03;5075415;28;20627;-78
2023/04/16 03:56:24;;;;;;;15.30;9.53;;;;;;;8.99;100.00;99166.09;5075492;28;20221;-78
2023/04/16 03:58:54;;;;;;;12.13;9.63;;;;;;;9.05;100.00;99163.09;5071274;28;20306;-79
2023/04/16 04:01:22;;;;;;;12.43;8.90;;;;;;;8.98;100.00;99161.75;5075381;28;20200;-78
2023/04/16 04:03:50;;;;;;;13.70;9.47;;;;;;;8.89;100.00;99161.34;5077097;28;20220;-78
2023/04/16 04:06:19;;;;;;;12.43;9.67;;;;;;;8.90;100.00;99164.84;5073860;28;20200;-78
2023/04/16 04:08:49;;;;;;;12.87;9.67;;;;;;;8.93;100.00;99164.66;5069257;28;20246;-78
2023/04/16 04:11:17;;;;;;;14.13;10.00;;;;;;;8.96;100.00;99164.47;5075080;28;20200;-78
2023/04/16 04:13:45;;;;;;;12.83;9.53;;;;;;;9.07;100.00;99169.13;5074295;28;20220;-78
2023/04/16 04:16:15;;;;;;;13.67;9.87;;;;;;;8.99;100.00;99166.97;5075165;28;20265;-78
2023/04/16 04:18:43;;;;;;;12.43;9.13;;;;;;;9.03;100.00;99171.13;5065191;28;20257;-79
2023/04/16 04:21:12;;;;;;;14.13;9.80;;;;;;;8.98;100.00;99175.81;5075168;28;20201;-78
2023/04/16 04:23:41;;;;;;;12.53;8.67;;;;;;;8.99;100.00;99180.16;5074931;28;20200;-78
2023/04/16 04:26:09;;;;;;;13.60;9.20;;;;;;;9.01;100.00;99172.16;5075040;28;20201;-79
2023/04/16 04:28:37;;;;;;;10.77;8.87;;;;;;;9.07;100.00;99172.66;5067296;28;20681;-79
2023/04/16 04:31:05;;;;;;;12.40;9.30;;;;;;;9.12;100.00;99175.88;5074790;28;20193;-78
2023/04/16 04:33:35;;;;;;;11.37;8.60;;;;;;;9.12;100.00;99178.50;5074799;28;20238;-79
2023/04/16 04:36:03;;;;;;;13.40;9.03;;;;;;;9.17;100.00;99181.75;5074815;28;20200;-78
2023/04/16 04:38:32;;;;;;;12.07;8.83;;;;;;;9.23;100.00;99182.31;5012749;28;20256;-79
2023/04/16 04:41:00;;;;;;;13.80;9.43;;;;;;;9.21;100.00;99192.13;5012943;28;20206;-79
2023/04/16 04:43:28;;;;;;;11.73;9.13;;;;;;;9.10;100.00;99185.69;5008899;28;20198;-79
2023/04/16 04:45:56;;;;;;;10.67;7.80;;;;;;;9.12;100.00;99194.38;5012901;28;20222;-79
2023/04/16 04:48:25;;;;;;;12.60;8.07;;;;;;;9.13;100.00;99185.50;5008613;28;20198;-78
2023/04/16 04:50:55;;;;;;;12.13;8.40;;;;;;;9.21;100.00;99200.06;5006035;28;20252;-79
2023/04/16 04:53:23;;;;;;;10.60;8.50;;;;;;;9.17;100.00;99194.13;5006268;28;20202;-79
2023/04/16 04:55:51;;;;;;;12.53;8.47;;;;;;;9.11;100.00;99197.09;5012502;28;20341;-78
2023/04/16 04:58:25;;;;;;;11.50;8.70;;;;;;;9.17;100.00;99202.88;5009538;28;20191;-78
2023/04/16 05:00:53;;;;;;;13.70;9.67;;;;;;;9.16;100.00;99202.94;5007271;28;20207;-78
2023/04/16 05:03:22;;;;;;;12.47;9.47;;;;;;;9.08;100.00;99216.63;5046707;28;20742;-78
2023/04/16 05:05:50;;;;;;;11.77;8.50;;;;;;;9.07;100.00;99217.56;5068127;28;20200;-78
2023/04/16 05:08:20;;;;;;;14.20;9.63;;;;;;;9.05;100.00;99222.06;5073881;28;20189;-78
2023/04/16 05:10:50;;;;;;;12.53;9.27;;;;;;;9.03;100.00;99223.09;5071260;28;20254;-78
2023/04/16 05:13:18;;;;;;;13.47;9.07;;;;;;;9.06;100.00;99229.03;5072698;28;20463;-78
2023/04/16 05:15:46;;;;;;;12.63;9.33;;;;;;;8.98;100.00;99230.44;5068523;28;20231;-78
2023/04/16 05:18:15;;;;;;;12.20;9.70;;;;;;;8.92;100.00;99234.28;5065795;28;20204;-78
2023/04/16 05:20:43;;;;;;;14.03;10.10;;;;;;;8.95;100.00;99239.38;5069293;28;20253;-78
2023/04/16 05:23:11;;;;;;;13.77;9.70;;;;;;;8.95;100.00;99242.00;5069290;28;20185;-78
2023/04/16 05:25:40;;;;;;;13.63;9.77;;;;;;;8.98;100.00;99246.31;5070922;28;20196;-78
2023/04/16 05:28:09;;;;;;;13.70;10.13;;;;;;;8.93;100.00;99248.34;5066822;28;20204;-78
2023/04/16 05:30:37;;;;;;;17.13;10.83;;;;;;;8.91;100.00;99247.56;5068889;28;20250;-78
2023/04/16 05:33:05;;;;;;;18.13;12.20;;;;;;;8.95;100.00;99252.56;5070895;28;20279;-78
2023/04/16 05:35:33;;;;;;;13.20;10.47;;;;;;;8.87;100.00;99255.66;5065296;28;20228;-78
2023/04/16 05:38:03;;;;;;;17.40;10.90;;;;;;;8.93;100.00;99266.81;5073655;28;20192;-78
2023/04/16 05:40:31;;;;;;;14.57;10.90;;;;;;;8.80;100.00;99264.00;5071141;28;20223;-78
2023/04/16 05:43:01;;;;;;;16.33;11.53;;;;;;;8.83;100.00;99269.13;5071996;28;20191;-78
2023/04/16 05:45:30;;;;;;;16.33;11.30;;;;;;;8.82;100.00;99275.34;5070522;28;20200;-78
2023/04/16 05:47:58;;;;;;;18.50;12.20;;;;;;;8.83;100.00;99274.41;5070774;28;20204;-78
2023/04/16 05:50:26;;;;;;;17.50;12.03;;;;;;;8.84;100.00;99281.38;5070551;28;20279;-78
2023/04/16 05:52:54;;;;;;;16.83;11.63;;;;;;;8.82;100.00;99283.25;5066057;28;20234;-78
2023/04/16 05:55:23;;;;;;;19.17;12.27;;;;;;;8.82;100.00;99292.03;5070514;28;20228;-78
2023/04/16 05:57:51;;;;;;;17.20;12.17;;;;;;;8.85;100.00;99291.00;5062238;28;20254;-78
2023/04/16 06:00:21;;;;;;;17.20;11.87;;;;;;;8.89;100.00;99297.84;5073202;28;20200;-78
2023/04/16 06:02:49;;;;;;;17.23;12.67;;;;;;;8.86;100.00;99295.34;5070394;28;20259;-78
2023/04/16 06:05:18;;;;;;;20.33;12.87;;;;;;;8.79;100.00;99292.22;5068969;28;20203;-78
2023/04/16 06:07:46;;;;;;;17.97;13.10;;;;;;;8.93;100.00;99288.81;5073359;28;20200;-78
2023/04/16 06:10:14;;;;;;;17.83;13.07;;;;;;;8.92;100.00;99284.47;5073679;28;20624;-79
2023/04/16 06:12:42;;;;;;;20.53;13.37;;;;;;;8.98;100.00;99291.22;5073851;28;20379;-78
2023/04/16 06:15:11;;;;;;;20.33;13.40;;;;;;;8.95;100.00;99286.94;5064429;28;20620;-78
2023/04/16 06:17:41;;;;;;;17.57;13.10;;;;;;;8.99;100.00;99292.91;5011353;28;20233;-78
2023/04/16 06:20:10;;;;;;;20.53;14.07;;;;;;;8.94;100.00;99292.28;5005387;28;20241;-78
2023/04/16 06:22:39;;;;;;;19.93;13.60;;;;;;;9.01;100.00;99294.53;5011021;28;20278;-78
2023/04/16 06:25:08;;;;;;;20.47;13.83;;;;;;;9.03;100.00;99300.56;5011112;28;20198;-79
2023/04/16 06:27:36;;;;;;;18.27;13.50;;;;;;;9.02;100.00;99293.59;5011204;28;20195;-78
2023/04/16 06:30:05;;;;;;;18.30;13.90;;;;;;;9.08;100.00;99287.97;5007499;28;20198;-79
2023/04/16 06:32:33;;;;;;;19.07;13.80;;;;;;;9.11;100.00;99284.28;5009071;28;20213;-78
2023/04/16 06:35:06;;;;;;;19.53;13.77;;;;;;;9.10;100.00;99288.72;5011115;28;20241;-78
2023/04/16 06:37:34;;;;;;;20.60;13.43;;;;;;;9.15;100.00;99286.66;5009072;28;20206;-78
2023/04/16 06:40:02;;;;;;;17.70;12.70;;;;;;;9.17;100.00;99287.44;5008713;28;20202;-79
2023/04/16 06:42:31;;;;;;;19.13;13.50;;;;;;;9.21;100.00;99293.41;4991824;28;20194;-79
2023/04/16 06:44:59;;;;;;;22.17;14.43;;;;;;;9.16;100.00;99300.72;5007052;28;20203;-78
2023/04/16 06:47:27;;;;;;;22.33;13.87;;;;;;;9.18;100.00;99301.53;5008395;28;20202;-79
2023/04/16 06:49:55;;;;;;;18.47;12.87;;;;;;;9.19;100.00;99295.28;5010731;28;20669;-78
2023/04/16 06:52:25;;;;;;;19.03;12.97;;;;;;;9.33;100.00;99310.34;5003852;28;20194;-79
2023/04/16 06:54:55;;;;;;;20.60;14.37;;;;;;;9.28;100.00;99308.00;5010654;28;20242;-79
2023/04/16 06:57:23;;;;;;;21.60;15.07;;;;;;;9.35;100.00;99314.59;5011045;28;20209;-79
2023/04/16 06:59:51;;;;;;;19.90;13.57;;;;;;;9.40;100.00;99312.56;5015092;28;20204;-79
2023/04/16 07:02:20;;;;;;;19.90;13.70;;;;;;;9.45;100.00;99312.28;5072520;28;20200;-79
2023/04/16 07:04:48;;;;;;;19.13;13.07;;;;;;;9.44;100.00;99315.88;5069724;28;20259;-78
2023/04/16 07:07:16;;;;;;;22.80;14.23;;;;;;;9.50;100.00;99319.97;5068506;28;20216;-79
2023/04/16 07:09:46;;;;;;;19.33;13.40;;;;;;;9.53;100.00;99315.38;5067148;28;20254;-79
2023/04/16 07:12:15;;;;;;;21.10;14.13;;;;;;;9.64;100.00;99320.88;5072427;28;20184;-79
2023/04/16 07:14:43;;;;;;;20.00;14.23;;;;;;;9.54;100.00;99311.78;5065490;28;20238;-79
2023/04/16 07:17:11;;;;;;;20.20;13.83;;;;;;;9.73;100.00;99308.91;5069569;28;20226;-79
2023/04/16 07:19:39;;;;;;;19.53;12.97;;;;;;;9.75;100.00;99315.84;5065173;28;20250;-78
2023/04/16 07:22:08;;;;;;;19.90;14.03;;;;;;;9.71;100.00;99314.31;5066473;28;20204;-79
2023/04/16 07:24:36;;;;;;;18.37;13.10;;;;;;;9.77;100.00;99325.47;5065163;28;20200;-78
2023/04/16 07:27:06;;;;;;;22.20;13.73;;;;;;;9.74;100.00;99323.84;5067236;28;20234;-78
2023/04/16 07:29:35;;;;;;;19.27;13.70;;;;;;;9.85;100.00;99323.25;5051478;28;20212;-79
2023/04/16 07:32:05;;;;;;;19.63;13.60;;;;;;;9.88;100.00;99318.63;5069934;28;20204;-78
2023/04/16 07:34:35;;;;;;;19.63;13.30;;;;;;;9.91;100.00;99320.22;5071715;28;20227;-78
2023/04/16 07:37:03;;;;;;;19.50;13.60;;;;;;;9.99;100.00;99324.13;5073452;28;20196;-78
2023/04/16 07:39:31;;;;;;;17.20;13.10;;;;;;;10.09;100.00;99326.22;5076007;28;20199;-78
2023/04/16 07:42:00;;;;;;;19.20;13.73;;;;;;;10.18;100.00;99318.59;5072342;28;20205;-79
2023/04/16 07:44:30;;;;;;;21.77;12.93;;;;;;;10.18;100.00;99320.41;5071704;28;20238;-78
2023/04/16 07:46:58;;;;;;;17.10;12.73;;;;;;;10.16;100.00;99315.19;5071076;28;20287;-78
2023/04/16 07:49:26;;;;;;;18.60;13.40;;;;;;;10.07;100.00;99321.03;5072979;28;20286;-79
2023/04/16 07:51:55;;;;;;;17.93;13.00;;;;;;;10.16;100.00;99317.84;5075652;28;20200;-78
2023/04/16 07:54:23;;;;;;;18.57;13.33;;;;;;;10.21;100.00;99322.84;5075495;28;20265;-79
2023/04/16 07:56:51;;;;;;;16.60;13.40;;;;;;;10.38;100.00;99319.22;5071641;28;20220;-78
2023/04/16 07:59:19;;;;;;;16.27;12.53;;;;;;;10.45;100.00;99317.91;5071637;28;20254;-79
2023/04/16 08:01:53;;;;;;;18.30;12.90;;;;;;;10.51;100.00;99328.13;5075332;28;20283;-79
2023/04/16 08:04:24;;;;;;;17.10;12.67;;;;;;;10.45;100.00;99323.22;5071871;28;20247;-78
2023/04/16 08:06:53;;;;;;;15.93;12.40;;;;;;;10.54;100.00;99326.16;5075499;28;20259;-79
2023/04/16 08:09:23;;;;;;;18.80;13.10;;;;;;;10.70;100.00;99328.69;5075250;28;20200;-79
2023/04/16 08:11:51;;;;;;;16.10;12.43;;;;;;;10.67;100.00;99328.88;5075412;28;20287;-79
2023/04/16 08:14:20;;;;;;;18.03;12.47;;;;;;;10.73;100.00;99331.16;5074107;28;20203;-79
2023/04/16 08:16:49;;;;;;;17.40;12.80;;;;;;;10.70;100.00;99335.78;5075009;28;20250;-79
2023/04/16 08:19:19;;;;;;;16.70;12.50;;;;;;;10.77;100.00;99337.97;5072353;28;20201;-78
2023/04/16 08:21:47;;;;;;;17.37;12.63;;;;;;;10.78;100.00;99337.03;5072302;28;20250;-79
2023/04/16 08:24:16;;;;;;;14.93;12.13;;;;;;;10.76;100.00;99341.56;5075067;28;20204;-78
2023/04/16 08:26:44;;;;;;;17.73;13.40;;;;;;;10.71;100.00;99343.66;5070981;28;20192;-79
2023/04/16 08:29:12;;;;;;;18.13;13.53;;;;;;;10.74;100.00;99339.97;5070671;28;20254;-79
2023/04/16 08:31:41;;;;;;;19.40;14.70;;;;;;;10.84;100.00;99335.81;5075055;28;20192;-79
2023/04/16 08:34:11;;;;;;;15.40;12.97;;;;;;;10.85;100.00;99345.44;5069383;28;20200;-79
2023/04/16 08:36:40;;;;;;;17.83;13.63;;;;;;;10.83;100.00;99348.19;5072343;28;20212;-79
2023/04/16 08:39:09;;;;;;;16.57;13.23;;;;;;;10.84;100.00;99343.75;5066715;28;20200;-78
2023/04/16 08:41:41;;;;;;;17.73;13.97;;;;;;;11.00;100.00;99344.50;5070377;28;20283;-78
2023/04/16 08:44:13;;;;;;;19.13;14.30;;;;;;;11.01;100.00;99342.72;5069628;28;20200;-79
2023/04/16 08:46:42;;;;;;;19.07;14.40;;;;;;;11.02;100.00;99355.84;5074683;28;20200;-78
2023/04/16 08:49:16;;;;;;;18.53;14.50;;;;;;;10.95;100.00;99356.34;5070267;28;20203;-79
2023/04/16 08:51:52;;;;;;;17.73;13.90;;;;;;;11.00;100.00;99349.81;5070212;28;20245;-78
2023/04/16 08:54:31;;;;;;;20.13;14.83;;;;;;;10.85;100.00;99353.41;5071615;28;20199;-78
2023/04/16 08:57:00;;;;;;;23.13;15.87;;;;;;;10.66;100.00;99348.38;5072221;28;20704;-79
2023/04/16 08:59:32;;;;;;;20.53;14.40;;;;;;;10.62;100.00;99365.44;5068951;28;20230;-78
2023/04/16 09:02:01;;;;;;;18.97;14.30;;;;;;;10.64;100.00;99367.97;5067763;28;20188;-78
2023/04/16 09:04:29;;;;;;;20.90;14.67;;;;;;;10.70;100.00;99365.78;5063501;28;20258;-78
2023/04/16 09:07:00;;;;;;;19.50;15.43;;;;;;;10.62;100.00;99361.94;5066883;28;20200;-79
2023/04/16 09:09:28;;;;;;;20.67;14.97;;;;;;;10.68;100.00;99366.81;5074219;28;20197;-78
2023/04/16 09:11:56;;;;;;;22.73;15.33;;;;;;;10.69;100.00;99364.06;5064103;28;20200;-79
2023/04/16 09:14:25;;;;;;;17.47;13.70;;;;;;;10.86;100.00;99366.56;5069011;28;20200;-79
2023/04/16 09:16:54;;;;;;;20.07;14.50;;;;;;;10.74;100.00;99374.41;5059538;28;20228;-78
2023/04/16 09:19:23;;;;;;;18.53;14.13;;;;;;;10.67;100.00;99373.91;5069834;28;20209;-79
2023/04/16 09:21:52;;;;;;;21.93;14.23;;;;;;;10.77;100.00;99377.72;5074801;28;20246;-78
2023/04/16 09:24:23;;;;;;;19.87;13.57;;;;;;;10.68;100.00;99380.06;5068838;28;20200;-78
2023/04/16 09:26:52;;;;;;;18.90;13.93;;;;;;;10.59;100.00;99381.47;5071622;28;20200;-78
2023/04/16 09:29:35;;;;;;;19.37;14.30;;;;;;;10.64;100.00;99392.66;4991801;28;20255;-78
2023/04/16 09:32:05;;;;;;;18.53;14.80;;;;;;;10.57;100.00;99386.88;4989589;28;20210;-79
2023/04/16 09:34:34;;;;;;;19.13;14.13;;;;;;;10.64;100.00;99395.31;4993904;28;20191;-78
2023/04/16 09:37:17;;;;;;;19.27;15.10;;;;;;;10.76;100.00;99397.22;4996452;28;20215;-79
2023/04/16 09:39:56;;;;;;;19.13;14.10;;;;;;;10.62;100.00;99399.00;4992446;28;20199;-78
2023/04/16 09:42:26;;;;;;;17.70;14.50;;;;;;;10.70;100.00;99402.88;4992253;28;20202;-79
2023/04/16 09:44:54;;;;;;;22.07;16.53;;;;;;;10.64;100.00;99403.25;4987517;28;20238;-79
2023/04/16 09:47:39;;;;;;;20.27;15.50;;;;;;;10.61;100.00;99406.06;5029122;28;20199;-79
2023/04/16 09:50:09;;;;;;;18.40;15.73;;;;;;;10.55;100.00;99401.16;5073221;28;20287;-78
2023/04/16 09:52:40;;;;;;;21.17;16.30;;;;;;;10.51;100.00;99403.13;5035694;28;20207;-78
2023/04/16 09:55:09;;;;;;;20.93;17.07;;;;;;;10.51;100.00;99412.88;5072940;28;20196;-79
2023/04/16 09:57:38;;;;;;;21.47;16.73;;;;;;;10.50;100.00;99416.47;5068686;28;20220;-78
2023/04/16 10:00:09;;;;;;;19.07;16.10;;;;;;;10.56;100.00;99421.41;5068781;28;20239;-78
2023/04/16 10:02:40;;;;;;;22.43;16.47;;;;;;;10.54;100.00;99416.19;5068700;28;20278;-78
2023/04/16 10:05:10;;;;;;;22.87;17.47;;;;;;;10.50;100.00;99422.59;5068847;28;20278;-78
2023/04/16 10:07:38;;;;;;;21.73;17.43;;;;;;;10.53;100.00;99421.59;5067419;28;20659;-78
2023/04/16 10:10:10;;;;;;;24.00;18.03;;;;;;;10.50;100.00;99427.06;5069196;28;20257;-78
2023/04/16 10:12:38;;;;;;;21.50;18.10;;;;;;;10.51;100.00;99434.06;5069754;28;20651;-78
2023/04/16 10:15:07;;;;;;;21.40;17.27;;;;;;;10.56;100.00;99435.50;5067330;28;20644;-78
2023/04/16 10:17:37;;;;;;;24.07;18.27;;;;;;;10.50;100.00;99443.78;5019489;28;20224;-78
2023/04/16 10:20:07;;;;;;;25.40;17.80;;;;;;;10.58;100.00;99440.69;5073008;28;20196;-78
2023/04/16 10:22:35;;;;;;;23.93;18.40;;;;;;;10.55;100.00;99438.25;5063328;28;20197;-78
2023/04/16 10:25:07;;;;;;;22.53;17.80;;;;;;;10.56;100.00;99440.78;5069245;28;20203;-78
2023/04/16 10:27:37;;;;;;;22.83;18.30;;;;;;;10.65;100.00;99447.34;5068617;28;20200;-79
2023/04/16 10:30:08;;;;;;;26.40;18.77;;;;;;;10.70;100.00;99455.84;5074429;28;20666;-78
2023/04/16 10:32:38;;;;;;;24.50;18.37;;;;;;;10.74;100.00;99449.44;5089545;28;20188;-78
2023/04/16 10:35:07;;;;;;;26.23;18.93;;;;;;;10.67;100.00;99448.09;5083423;28;20721;-79
2023/04/16 10:37:37;;;;;;;23.63;18.13;;;;;;;10.79;100.00;99450.00;5092598;28;20211;-78
2023/04/16 10:40:24;;;;;;;23.50;18.67;;;;;;;10.80;100.00;99449.06;5091978;28;20214;-79
2023/04/16 10:43:03;;;;;;;23.93;18.87;;;;;;;10.81;100.00;99447.28;5084381;28;20213;-79
2023/04/16 10:45:39;;;;;;;23.90;18.90;;;;;;;10.91;100.00;99455.53;5081853;28;20237;-79
2023/04/16 10:48:15;;;;;;;23.00;19.33;;;;;;;10.88;100.00;99453.91;5092102;28;20649;-79
2023/04/16 10:50:57;;;;;;;24.60;19.23;;;;;;;10.86;100.00;99448.69;5087412;28;20209;-79
2023/04/16 10:53:29;;;;;;;24.17;19.20;;;;;;;10.89;100.00;99458.25;5072770;28;20676;-79
2023/04/16 10:55:59;;;;;;;23.67;19.80;;;;;;;10.92;100.00;99455.44;5087060;28;20202;-79
2023/04/16 10:58:33;;;;;;;26.70;20.10;;;;;;;10.84;100.00;99461.19;5084855;28;20320;-79
2023/04/16 11:03:59;;;;;;;27.40;20.40;;;;;;;10.72;100.00;99467.22;5090477;28;20314;-79
2023/04/16 11:06:32;;;;;;;31.10;21.73;;;;;;;10.70;100.00;99473.53;5089491;28;20195;-79
2023/04/16 11:09:05;;;;;;;29.50;21.13;;;;;;;10.55;100.00;99472.69;5090408;28;20959;-79
2023/04/16 11:11:42;;;;;;;29.03;20.90;;;;;;;10.57;100.00;99478.72;5093095;28;20200;-78
2023/04/16 11:14:19;;;;;;;29.87;22.53;;;;;;;10.51;100.00;99487.03;5085459;28;20195;-79
2023/04/16 11:16:49;;;;;;;27.20;20.73;;;;;;;10.46;100.00;99478.50;5092883;28;20198;-79
2023/04/16 11:19:21;;;;;;;27.80;21.73;;;;;;;10.43;100.00;99487.50;5096440;28;20237;-78
2023/04/16 11:21:55;;;;;;;28.63;21.33;;;;;;;10.43;100.00;99487.50;5089621;28;20663;-79
2023/04/16 11:24:30;;;;;;;27.97;21.30;;;;;;;10.53;100.00;99493.97;5091879;28;20198;-79
2023/04/16 11:27:04;;;;;;;28.93;21.83;;;;;;;10.45;100.00;99490.03;5086853;28;20206;-79
2023/04/16 11:29:34;;;;;;;25.47;20.63;;;;;;;10.46;100.00;99492.59;5090957;28;20194;-78
2023/04/16 11:32:03;;;;;;;31.30;21.37;;;;;;;10.44;100.00;99496.28;5090859;28;20196;-79